Time;durP1;ratioP1;P1;durP2;ratioP2;P2;SDS_P1;SDS_P2;PMS_P1;PMS_P2;Temp;Humidity;BMP_temperature;BMP_pressure;BME280_temperature;BME280_humidity;BME280_pressure;Samples;Min_cycle;Max_cycle;Signal;HPM_P1;HPM_P2
2022/10/07 00:02:05;;;;;;;8.40;4.22;;;;;;;;;;4915491;29;20088;-53
2022/10/07 00:04:31;;;;;;;4.22;3.83;;;;;;;;;;4917740;29;20392;-56
2022/10/07 00:06:56;;;;;;;9.25;3.63;;;;;;;;;;4918109;29;20116;-54
2022/10/07 00:09:22;;;;;;;5.35;3.80;;;;;;;;;;4917253;29;20503;-52
2022/10/07 00:11:47;;;;;;;4.72;3.75;;;;;;;;;;4918114;29;20134;-54
2022/10/07 00:14:12;;;;;;;6.95;4.40;;;;;;;;;;4916569;29;20034;-54
2022/10/07 00:16:39;;;;;;;5.65;3.83;;;;;;;;;;4916414;29;20569;-54
2022/10/07 00:19:06;;;;;;;5.72;3.53;;;;;;;;;;4914278;29;20528;-55
2022/10/07 00:21:33;;;;;;;4.10;3.70;;;;;;;;;;4912398;29;20024;-55
2022/10/07 00:23:58;;;;;;;5.35;3.85;;;;;;;;;;4915961;29;20783;-55
2022/10/07 00:26:25;;;;;;;5.13;4.38;;;;;;;;;;4916145;29;20024;-55
2022/10/07 00:28:50;;;;;;;7.07;4.45;;;;;;;;;;4913650;29;20696;-54
2022/10/07 00:31:20;;;;;;;7.55;4.47;;;;;;;;;;4913804;29;20060;-55
2022/10/07 00:33:46;;;;;;;6.53;4.95;;;;;;;;;;4917698;29;20055;-55
2022/10/07 00:36:12;;;;;;;4.25;3.85;;;;;;;;;;4918292;29;20035;-54
2022/10/07 00:38:38;;;;;;;6.35;4.35;;;;;;;;;;4916797;29;20091;-55
2022/10/07 00:41:03;;;;;;;5.40;3.95;;;;;;;;;;4916170;29;20040;-54
2022/10/07 00:43:30;;;;;;;5.43;4.20;;;;;;;;;;4916453;29;20066;-55
2022/10/07 00:45:59;;;;;;;5.53;4.00;;;;;;;;;;4912707;29;20151;-52
2022/10/07 00:48:26;;;;;;;5.18;4.50;;;;;;;;;;4911500;29;20047;-54
2022/10/07 00:50:54;;;;;;;5.72;4.45;;;;;;;;;;4913038;29;20500;-56
2022/10/07 00:53:20;;;;;;;5.95;4.50;;;;;;;;;;4912635;29;20028;-53
2022/10/07 00:55:45;;;;;;;4.50;3.60;;;;;;;;;;4915094;29;20458;-54
2022/10/07 00:58:11;;;;;;;5.47;4.15;;;;;;;;;;4916290;29;20043;-52
2022/10/07 01:00:37;;;;;;;5.93;4.70;;;;;;;;;;4914575;29;20020;-55
2022/10/07 01:03:03;;;;;;;4.68;3.85;;;;;;;;;;4911993;29;20598;-54
2022/10/07 01:05:28;;;;;;;7.35;3.90;;;;;;;;;;4912299;29;20028;-55
2022/10/07 01:07:54;;;;;;;3.47;3.25;;;;;;;;;;4912564;29;20059;-54
2022/10/07 01:10:20;;;;;;;4.70;4.25;;;;;;;;;;4914499;29;20048;-55
2022/10/07 01:13:02;;;;;;;3.83;3.50;;;;;;;;;;4912286;29;20227;-56
2022/10/07 01:15:30;;;;;;;7.22;4.40;;;;;;;;;;4913679;29;20382;-54
2022/10/07 01:18:16;;;;;;;5.10;3.80;;;;;;;;;;4916025;29;20891;-56
2022/10/07 01:20:47;;;;;;;5.80;4.85;;;;;;;;;;4907431;29;20080;-52
2022/10/07 01:23:22;;;;;;;6.93;4.60;;;;;;;;;;4917370;29;20094;-53
2022/10/07 01:26:13;;;;;;;4.07;3.67;;;;;;;;;;4912565;29;20027;-54
2022/10/07 01:28:48;;;;;;;4.13;3.75;;;;;;;;;;4910713;29;20032;-52
2022/10/07 01:31:16;;;;;;;6.80;4.07;;;;;;;;;;4911623;29;20486;-55
2022/10/07 01:33:42;;;;;;;8.15;5.75;;;;;;;;;;4912354;29;20032;-55
2022/10/07 01:36:15;;;;;;;6.45;4.15;;;;;;;;;;4913342;29;20027;-55
2022/10/07 01:38:44;;;;;;;8.27;4.72;;;;;;;;;;4915404;29;20036;-56
2022/10/07 01:41:17;;;;;;;5.30;4.55;;;;;;;;;;4914910;29;20122;-54
2022/10/07 01:43:44;;;;;;;7.20;5.07;;;;;;;;;;4913216;29;20036;-54
2022/10/07 01:46:13;;;;;;;7.25;4.75;;;;;;;;;;4910329;29;20020;-54
2022/10/07 01:48:38;;;;;;;7.47;4.95;;;;;;;;;;4911339;29;20067;-55
2022/10/07 01:51:06;;;;;;;8.90;5.72;;;;;;;;;;4913104;29;20223;-55
2022/10/07 01:53:48;;;;;;;7.57;5.75;;;;;;;;;;4915693;29;20856;-55
2022/10/07 01:56:32;;;;;;;6.35;5.30;;;;;;;;;;4914160;29;20128;-54
2022/10/07 01:59:10;;;;;;;7.43;4.63;;;;;;;;;;4910716;29;20027;-55
2022/10/07 02:01:38;;;;;;;7.60;4.75;;;;;;;;;;4912687;29;20028;-54
2022/10/07 02:04:06;;;;;;;5.45;4.75;;;;;;;;;;4913931;29;20020;-55
2022/10/07 02:06:50;;;;;;;5.13;4.38;;;;;;;;;;4914910;29;20039;-54
2022/10/07 02:09:33;;;;;;;5.85;5.35;;;;;;;;;;4915666;29;21055;-55
2022/10/07 02:12:03;;;;;;;5.45;4.45;;;;;;;;;;4913429;29;20071;-56
2022/10/07 02:14:35;;;;;;;7.28;5.18;;;;;;;;;;4915467;29;20538;-55
2022/10/07 02:17:03;;;;;;;8.70;6.45;;;;;;;;;;4913050;29;20051;-55
2022/10/07 02:19:30;;;;;;;7.50;5.60;;;;;;;;;;4914603;29;20068;-55
2022/10/07 02:21:56;;;;;;;6.75;5.22;;;;;;;;;;4913658;29;20051;-56
2022/10/07 02:24:24;;;;;;;6.95;5.22;;;;;;;;;;4913311;29;20032;-54
2022/10/07 02:26:51;;;;;;;5.32;4.82;;;;;;;;;;4910436;29;20053;-54
2022/10/07 02:29:19;;;;;;;5.97;5.35;;;;;;;;;;4911523;29;20126;-55
2022/10/07 02:31:46;;;;;;;11.07;5.22;;;;;;;;;;4915548;29;20556;-55
2022/10/07 02:34:14;;;;;;;5.72;5.07;;;;;;;;;;4914601;29;20063;-54
2022/10/07 02:36:43;;;;;;;9.35;5.68;;;;;;;;;;4915606;29;20050;-54
2022/10/07 02:39:09;;;;;;;9.73;6.22;;;;;;;;;;4914852;29;20032;-55
2022/10/07 02:41:40;;;;;;;5.85;5.25;;;;;;;;;;4915397;29;20032;-54
2022/10/07 02:44:29;;;;;;;12.55;6.20;;;;;;;;;;4913749;29;20111;-54
2022/10/07 02:47:06;;;;;;;9.68;6.45;;;;;;;;;;4913544;29;20039;-54
2022/10/07 02:49:36;;;;;;;7.10;6.00;;;;;;;;;;4913522;29;20502;-53
2022/10/07 02:52:04;;;;;;;6.13;5.28;;;;;;;;;;4913718;29;20547;-55
2022/10/07 02:54:33;;;;;;;5.85;5.28;;;;;;;;;;4913414;29;20028;-52
2022/10/07 02:56:59;;;;;;;10.55;6.55;;;;;;;;;;4913941;29;20047;-52
2022/10/07 02:59:25;;;;;;;7.65;5.35;;;;;;;;;;4912506;29;20079;-53
2022/10/07 03:01:52;;;;;;;8.05;5.80;;;;;;;;;;4913874;29;20403;-54
2022/10/07 03:04:18;;;;;;;6.40;5.63;;;;;;;;;;4912783;29;20020;-55
2022/10/07 03:06:43;;;;;;;5.75;4.85;;;;;;;;;;4913144;29;20035;-54
2022/10/07 03:09:09;;;;;;;6.03;4.80;;;;;;;;;;4913364;29;20538;-54
2022/10/07 03:11:36;;;;;;;7.30;6.07;;;;;;;;;;4913196;29;20040;-56
2022/10/07 03:14:03;;;;;;;8.18;6.40;;;;;;;;;;4911626;29;20630;-55
2022/10/07 03:16:28;;;;;;;9.15;5.50;;;;;;;;;;4911304;29;20043;-55
2022/10/07 03:18:53;;;;;;;8.20;7.40;;;;;;;;;;4910546;29;20467;-54
2022/10/07 03:21:18;;;;;;;9.55;6.13;;;;;;;;;;4914217;29;20027;-55
2022/10/07 03:23:44;;;;;;;9.75;7.03;;;;;;;;;;4916542;29;20041;-55
2022/10/07 03:26:09;;;;;;;7.50;6.70;;;;;;;;;;4918736;29;20086;-55
2022/10/07 03:28:36;;;;;;;10.02;6.03;;;;;;;;;;4917896;29;20044;-55
2022/10/07 03:31:04;;;;;;;12.20;6.43;;;;;;;;;;4918451;29;20082;-53
2022/10/07 03:33:30;;;;;;;6.35;5.75;;;;;;;;;;4918127;29;20036;-53
2022/10/07 03:35:55;;;;;;;7.97;6.03;;;;;;;;;;4918574;29;20044;-55
2022/10/07 03:38:21;;;;;;;5.10;4.50;;;;;;;;;;4918580;29;20071;-57
2022/10/07 03:40:46;;;;;;;6.40;5.05;;;;;;;;;;4919314;29;20027;-53
2022/10/07 03:43:12;;;;;;;6.30;5.25;;;;;;;;;;4919316;29;20035;-53
2022/10/07 03:45:43;;;;;;;8.00;5.63;;;;;;;;;;4918603;29;20708;-55
2022/10/07 03:48:09;;;;;;;8.13;5.25;;;;;;;;;;4899735;29;20051;-54
2022/10/07 03:50:35;;;;;;;5.95;5.30;;;;;;;;;;4918075;29;20059;-54
2022/10/07 03:53:00;;;;;;;9.82;5.82;;;;;;;;;;4917976;29;20028;-54
2022/10/07 03:55:25;;;;;;;9.40;6.10;;;;;;;;;;4918696;29;20811;-54
2022/10/07 03:57:52;;;;;;;7.93;5.55;;;;;;;;;;4917244;29;20060;-54
2022/10/07 04:00:19;;;;;;;6.18;5.57;;;;;;;;;;4917430;29;20046;-54
2022/10/07 04:02:46;;;;;;;10.73;7.53;;;;;;;;;;4915387;29;20079;-54
2022/10/07 04:05:11;;;;;;;8.48;6.15;;;;;;;;;;4915435;29;20115;-53
2022/10/07 04:07:36;;;;;;;9.25;5.90;;;;;;;;;;4917852;29;20038;-53
2022/10/07 04:10:02;;;;;;;7.78;5.80;;;;;;;;;;4916736;29;20044;-55
2022/10/07 04:12:30;;;;;;;8.85;5.45;;;;;;;;;;4917067;29;20028;-53
2022/10/07 04:14:55;;;;;;;8.20;5.03;;;;;;;;;;4917665;28;20039;-53
2022/10/07 04:17:22;;;;;;;8.60;5.30;;;;;;;;;;4915501;29;20040;-55
2022/10/07 04:19:47;;;;;;;6.75;6.00;;;;;;;;;;4914370;29;20082;-54
2022/10/07 04:22:12;;;;;;;6.57;5.97;;;;;;;;;;4916774;29;20039;-55
2022/10/07 04:24:38;;;;;;;9.52;6.35;;;;;;;;;;4917007;29;20063;-56
2022/10/07 04:27:06;;;;;;;8.25;5.25;;;;;;;;;;4917395;29;20027;-54
2022/10/07 04:29:31;;;;;;;6.10;5.32;;;;;;;;;;4915677;29;20620;-54
2022/10/07 04:31:57;;;;;;;8.85;5.68;;;;;;;;;;4918123;29;20107;-54
2022/10/07 04:34:23;;;;;;;6.50;5.82;;;;;;;;;;4915302;28;20476;-54
2022/10/07 04:36:48;;;;;;;7.70;5.93;;;;;;;;;;4915221;29;20038;-53
2022/10/07 04:39:14;;;;;;;7.03;6.32;;;;;;;;;;4913436;29;20039;-55
2022/10/07 04:41:39;;;;;;;9.80;6.13;;;;;;;;;;4909519;29;20558;-55
2022/10/07 04:44:05;;;;;;;7.03;5.78;;;;;;;;;;4915915;29;20059;-53
2022/10/07 04:46:31;;;;;;;8.27;5.47;;;;;;;;;;4914497;29;20214;-55
2022/10/07 04:48:56;;;;;;;8.20;5.90;;;;;;;;;;4916325;29;20036;-55
2022/10/07 04:51:22;;;;;;;11.15;6.30;;;;;;;;;;4916450;29;20059;-55
2022/10/07 04:53:52;;;;;;;8.45;5.97;;;;;;;;;;4915842;29;20488;-55
2022/10/07 04:56:18;;;;;;;10.10;6.53;;;;;;;;;;4909386;29;20036;-60
2022/10/07 04:58:43;;;;;;;8.30;6.25;;;;;;;;;;4891542;29;20036;-57
2022/10/07 05:01:09;;;;;;;7.13;5.28;;;;;;;;;;4917393;29;20130;-55
2022/10/07 05:03:35;;;;;;;6.80;5.57;;;;;;;;;;4916136;29;20107;-53
2022/10/07 05:06:04;;;;;;;7.93;6.40;;;;;;;;;;4915825;29;20036;-53
2022/10/07 05:08:30;;;;;;;7.88;6.25;;;;;;;;;;4914693;29;20118;-54
2022/10/07 05:10:56;;;;;;;8.40;6.60;;;;;;;;;;4914086;29;20059;-55
2022/10/07 05:13:23;;;;;;;11.80;7.78;;;;;;;;;;4914335;29;20047;-59
2022/10/07 05:15:50;;;;;;;8.20;6.28;;;;;;;;;;4910304;29;20019;-52
2022/10/07 05:18:17;;;;;;;8.43;6.55;;;;;;;;;;4913155;29;20031;-56
2022/10/07 05:20:43;;;;;;;7.55;5.70;;;;;;;;;;4915471;29;20035;-54
2022/10/07 05:23:08;;;;;;;7.40;6.38;;;;;;;;;;4912212;29;20094;-53
2022/10/07 05:25:34;;;;;;;8.02;5.80;;;;;;;;;;4894368;29;20028;-55
2022/10/07 05:27:59;;;;;;;7.03;6.32;;;;;;;;;;4911554;29;20028;-58
2022/10/07 05:30:24;;;;;;;6.82;6.10;;;;;;;;;;4911341;29;20040;-58
2022/10/07 05:32:50;;;;;;;8.60;6.57;;;;;;;;;;4912470;29;20117;-58
2022/10/07 05:35:15;;;;;;;9.45;7.00;;;;;;;;;;4895840;29;20792;-58
2022/10/07 05:37:40;;;;;;;7.70;6.20;;;;;;;;;;4900888;29;20537;-59
2022/10/07 05:40:06;;;;;;;7.88;6.68;;;;;;;;;;4913546;29;20042;-59
2022/10/07 05:42:31;;;;;;;6.80;5.88;;;;;;;;;;4910691;29;20090;-59
2022/10/07 05:44:56;;;;;;;12.90;6.90;;;;;;;;;;4911446;29;20529;-59
2022/10/07 05:47:22;;;;;;;12.05;7.53;;;;;;;;;;4896605;29;20094;-60
2022/10/07 05:49:47;;;;;;;7.25;6.43;;;;;;;;;;4911259;29;20582;-60
2022/10/07 05:52:12;;;;;;;10.27;9.07;;;;;;;;;;4912964;29;20063;-61
2022/10/07 05:54:37;;;;;;;10.60;7.82;;;;;;;;;;4911489;29;20036;-59
2022/10/07 05:57:03;;;;;;;8.93;7.10;;;;;;;;;;4910972;29;20272;-60
2022/10/07 05:59:28;;;;;;;7.60;6.57;;;;;;;;;;4915089;29;20040;-59
2022/10/07 06:01:59;;;;;;;9.30;6.97;;;;;;;;;;4912947;29;20030;-60
2022/10/07 06:04:25;;;;;;;7.80;7.05;;;;;;;;;;4912305;29;20055;-59
2022/10/07 06:06:50;;;;;;;10.07;9.00;;;;;;;;;;4911075;29;20086;-59
2022/10/07 06:14:43;;;;;;;11.20;7.53;;;;;;;;;;4914947;29;20159;-59
2022/10/07 06:17:09;;;;;;;13.93;7.80;;;;;;;;;;4913818;29;20077;-63
2022/10/07 06:19:35;;;;;;;10.35;7.57;;;;;;;;;;4910570;29;20048;-64
2022/10/07 06:22:01;;;;;;;13.50;7.30;;;;;;;;;;4911331;29;20100;-59
2022/10/07 06:24:26;;;;;;;13.02;7.93;;;;;;;;;;4911123;29;20025;-59
2022/10/07 06:26:54;;;;;;;14.63;8.70;;;;;;;;;;4911164;29;20840;-59
2022/10/07 06:29:19;;;;;;;9.88;7.97;;;;;;;;;;4901945;29;20569;-59
2022/10/07 06:31:45;;;;;;;13.20;7.53;;;;;;;;;;4909645;29;20036;-59
2022/10/07 06:34:10;;;;;;;16.45;9.25;;;;;;;;;;4911049;29;20652;-59
2022/10/07 06:36:35;;;;;;;11.15;8.82;;;;;;;;;;4912442;29;20043;-58
2022/10/07 06:39:01;;;;;;;15.27;9.57;;;;;;;;;;4914685;29;20067;-61
2022/10/07 06:41:26;;;;;;;15.45;9.68;;;;;;;;;;4913603;29;20827;-60
2022/10/07 06:43:56;;;;;;;14.13;10.20;;;;;;;;;;4911853;29;20575;-58
2022/10/07 06:46:21;;;;;;;15.00;11.80;;;;;;;;;;4910961;29;20032;-59
2022/10/07 06:48:46;;;;;;;16.63;12.57;;;;;;;;;;4915522;29;20029;-58
2022/10/07 06:51:13;;;;;;;15.02;11.18;;;;;;;;;;4914177;29;20064;-59
2022/10/07 06:53:38;;;;;;;12.82;10.68;;;;;;;;;;4911167;29;20042;-59
2022/10/07 06:56:04;;;;;;;15.32;13.32;;;;;;;;;;4910409;28;20063;-59
2022/10/07 06:58:29;;;;;;;15.13;11.80;;;;;;;;;;4912842;29;20150;-57
2022/10/07 07:00:55;;;;;;;20.50;14.90;;;;;;;;;;4916613;29;20559;-57
2022/10/07 07:03:21;;;;;;;20.92;14.05;;;;;;;;;;4918665;29;20035;-58
2022/10/07 07:05:47;;;;;;;17.17;13.68;;;;;;;;;;4915594;29;20035;-57
2022/10/07 07:08:14;;;;;;;16.05;13.15;;;;;;;;;;4915951;29;20035;-56
2022/10/07 07:10:41;;;;;;;23.42;15.85;;;;;;;;;;4903229;29;20035;-56
2022/10/07 07:13:07;;;;;;;21.08;15.82;;;;;;;;;;4915408;29;20032;-56
2022/10/07 07:15:35;;;;;;;19.17;15.75;;;;;;;;;;4916162;29;20036;-56
2022/10/07 07:18:01;;;;;;;22.90;17.50;;;;;;;;;;4916204;29;20527;-57
2022/10/07 07:20:33;;;;;;;23.73;18.60;;;;;;;;;;4916749;29;20051;-56
2022/10/07 07:22:59;;;;;;;21.48;16.42;;;;;;;;;;4912903;29;20024;-57
2022/10/07 07:25:27;;;;;;;23.25;17.60;;;;;;;;;;4910213;29;20031;-56
2022/10/07 07:27:54;;;;;;;22.42;17.55;;;;;;;;;;4916748;29;20123;-57
2022/10/07 07:30:22;;;;;;;25.67;17.67;;;;;;;;;;4919086;29;20925;-62
2022/10/07 07:32:47;;;;;;;26.52;19.42;;;;;;;;;;4913672;29;20024;-55
2022/10/07 07:35:12;;;;;;;25.00;18.88;;;;;;;;;;4914147;29;20902;-56
2022/10/07 07:37:38;;;;;;;29.13;20.55;;;;;;;;;;4899454;29;20499;-56
2022/10/07 07:40:03;;;;;;;25.95;19.27;;;;;;;;;;4916093;29;20041;-55
2022/10/07 07:42:28;;;;;;;23.17;18.13;;;;;;;;;;4916294;29;20024;-58
2022/10/07 07:44:54;;;;;;;25.13;19.15;;;;;;;;;;4916360;29;20658;-57
2022/10/07 07:47:20;;;;;;;27.70;19.48;;;;;;;;;;4917501;29;20031;-58
2022/10/07 07:49:45;;;;;;;25.55;18.52;;;;;;;;;;4916156;29;20059;-60
2022/10/07 07:52:10;;;;;;;24.88;20.00;;;;;;;;;;4916154;29;20036;-57
2022/10/07 07:54:36;;;;;;;28.58;20.35;;;;;;;;;;4913052;29;20036;-56
2022/10/07 07:57:02;;;;;;;32.42;20.20;;;;;;;;;;4915098;29;20107;-55
2022/10/07 07:59:28;;;;;;;29.88;20.35;;;;;;;;;;4919237;29;20993;-57
2022/10/07 08:01:53;;;;;;;27.00;19.75;;;;;;;;;;4917037;29;20039;-57
2022/10/07 08:04:18;;;;;;;24.23;20.20;;;;;;;;;;4916603;29;20019;-57
2022/10/07 08:06:44;;;;;;;24.02;18.95;;;;;;;;;;4916946;29;20718;-57
2022/10/07 08:09:09;;;;;;;26.20;20.02;;;;;;;;;;4916507;29;20028;-57
2022/10/07 08:11:35;;;;;;;23.00;17.83;;;;;;;;;;4915711;29;20075;-55
2022/10/07 08:14:02;;;;;;;23.27;18.75;;;;;;;;;;4917625;29;20043;-56
2022/10/07 08:16:28;;;;;;;25.05;19.60;;;;;;;;;;4914338;29;20032;-56
2022/10/07 08:18:54;;;;;;;22.92;19.08;;;;;;;;;;4914141;29;20036;-57
2022/10/07 08:21:20;;;;;;;24.55;18.50;;;;;;;;;;4916836;29;20031;-58
2022/10/07 08:23:49;;;;;;;23.55;18.98;;;;;;;;;;4916145;29;20024;-55
2022/10/07 08:26:15;;;;;;;21.92;16.88;;;;;;;;;;4896677;29;20252;-56
2022/10/07 08:28:40;;;;;;;23.52;18.88;;;;;;;;;;4913068;29;20024;-56
2022/10/07 08:31:07;;;;;;;22.33;17.55;;;;;;;;;;4903370;29;20028;-56
2022/10/07 08:33:34;;;;;;;23.88;18.70;;;;;;;;;;4915356;29;20024;-56
2022/10/07 08:36:00;;;;;;;23.90;19.67;;;;;;;;;;4911811;29;20455;-57
2022/10/07 08:38:36;;;;;;;25.42;19.70;;;;;;;;;;4910805;29;20027;-58
2022/10/07 08:41:19;;;;;;;26.10;19.08;;;;;;;;;;4911820;29;20279;-56
2022/10/07 08:43:48;;;;;;;22.70;18.27;;;;;;;;;;4913731;29;20053;-56
2022/10/07 08:46:18;;;;;;;29.55;19.55;;;;;;;;;;4914332;29;20042;-58
2022/10/07 08:48:48;;;;;;;26.92;19.27;;;;;;;;;;4895246;29;20170;-56
2022/10/07 08:51:23;;;;;;;23.42;19.42;;;;;;;;;;4913027;29;20059;-58
2022/10/07 08:53:50;;;;;;;25.40;19.13;;;;;;;;;;4915527;29;20059;-59
2022/10/07 08:56:17;;;;;;;26.73;20.00;;;;;;;;;;4914491;29;20024;-56
2022/10/07 08:59:11;;;;;;;27.08;21.40;;;;;;;;;;4913668;29;20028;-59
2022/10/07 09:01:51;;;;;;;26.67;19.08;;;;;;;;;;4893979;28;20157;-55
2022/10/07 09:04:29;;;;;;;23.63;18.02;;;;;;;;;;4914644;29;20028;-56
2022/10/07 09:06:57;;;;;;;21.10;18.33;;;;;;;;;;4915505;29;20036;-54
2022/10/07 09:09:26;;;;;;;21.52;18.38;;;;;;;;;;4914559;29;20034;-55
2022/10/07 09:11:53;;;;;;;23.90;20.10;;;;;;;;;;4914045;29;20746;-56
2022/10/07 09:14:30;;;;;;;21.88;17.25;;;;;;;;;;4913615;29;20054;-57
2022/10/07 09:17:10;;;;;;;19.27;16.55;;;;;;;;;;4915199;29;20036;-56
2022/10/07 09:19:39;;;;;;;23.65;18.50;;;;;;;;;;4911962;29;20046;-55
2022/10/07 09:22:22;;;;;;;23.40;18.85;;;;;;;;;;4910969;29;20028;-55
2022/10/07 09:24:48;;;;;;;23.73;19.30;;;;;;;;;;4912950;29;20022;-57
2022/10/07 09:27:15;;;;;;;20.52;16.92;;;;;;;;;;4913093;29;20024;-55
2022/10/07 09:29:40;;;;;;;20.98;18.77;;;;;;;;;;4914381;29;20051;-56
2022/10/07 09:32:08;;;;;;;20.33;16.90;;;;;;;;;;4915736;29;20461;-55
2022/10/07 09:34:33;;;;;;;21.52;18.02;;;;;;;;;;4913605;29;20032;-52
2022/10/07 09:37:18;;;;;;;20.83;17.52;;;;;;;;;;4912767;29;20111;-55
2022/10/07 09:39:44;;;;;;;22.08;18.77;;;;;;;;;;4913627;29;20028;-54
2022/10/07 09:42:15;;;;;;;18.73;16.73;;;;;;;;;;4915829;29;20033;-55
2022/10/07 09:44:41;;;;;;;24.63;17.98;;;;;;;;;;4902830;29;20111;-55
2022/10/07 09:47:27;;;;;;;17.73;15.20;;;;;;;;;;4899224;29;20042;-58
2022/10/07 09:49:58;;;;;;;16.75;13.98;;;;;;;;;;4911855;29;20126;-56
2022/10/07 09:52:27;;;;;;;19.88;14.43;;;;;;;;;;4916390;29;20135;-56
2022/10/07 09:54:54;;;;;;;16.45;14.77;;;;;;;;;;4914289;29;20148;-53
2022/10/07 09:57:22;;;;;;;15.48;12.75;;;;;;;;;;4910438;29;20016;-58
2022/10/07 09:59:47;;;;;;;15.05;13.10;;;;;;;;;;4893909;29;20095;-58
2022/10/07 10:02:12;;;;;;;15.90;13.68;;;;;;;;;;4915792;29;20028;-58
2022/10/07 10:04:45;;;;;;;13.35;11.98;;;;;;;;;;4912567;29;20091;-58
2022/10/07 10:07:24;;;;;;;14.25;12.32;;;;;;;;;;4912525;29;20035;-59
2022/10/07 10:09:51;;;;;;;14.50;11.85;;;;;;;;;;4912060;29;20050;-59
2022/10/07 10:12:17;;;;;;;15.68;11.98;;;;;;;;;;4911033;29;20036;-60
2022/10/07 10:14:44;;;;;;;15.13;10.82;;;;;;;;;;4912992;29;20028;-61
2022/10/07 10:17:23;;;;;;;12.88;10.73;;;;;;;;;;4912980;29;20032;-59
2022/10/07 10:19:49;;;;;;;11.90;10.68;;;;;;;;;;4913386;29;20100;-60
2022/10/07 10:22:29;;;;;;;11.05;9.00;;;;;;;;;;4914955;28;20035;-59
2022/10/07 10:27:49;;;;;;;12.15;10.00;;;;;;;;;;4899868;29;20739;-59
2022/10/07 10:30:19;;;;;;;14.88;8.05;;;;;;;;;;4912823;29;20043;-59
2022/10/07 10:32:46;;;;;;;10.25;9.05;;;;;;;;;;4911870;29;20116;-59
2022/10/07 10:35:20;;;;;;;10.60;9.50;;;;;;;;;;4912032;29;20035;-59
2022/10/07 10:37:56;;;;;;;11.02;9.50;;;;;;;;;;4912061;29;20071;-59
2022/10/07 10:40:24;;;;;;;9.73;8.73;;;;;;;;;;4910597;29;20043;-60
2022/10/07 10:42:56;;;;;;;10.27;9.25;;;;;;;;;;4912073;29;20055;-59
2022/10/07 10:45:32;;;;;;;11.55;10.23;;;;;;;;;;4911574;29;20476;-60
2022/10/07 10:47:59;;;;;;;12.98;10.15;;;;;;;;;;4909358;29;20032;-61
2022/10/07 10:50:24;;;;;;;11.20;9.43;;;;;;;;;;4899343;29;20059;-59
2022/10/07 10:53:03;;;;;;;12.70;9.73;;;;;;;;;;4894522;29;20028;-58
2022/10/07 10:55:34;;;;;;;11.90;10.13;;;;;;;;;;4892621;29;20044;-58
2022/10/07 10:58:23;;;;;;;10.35;9.25;;;;;;;;;;4891685;29;20041;-59
2022/10/07 11:00:58;;;;;;;13.80;9.65;;;;;;;;;;4892111;29;20033;-59
2022/10/07 11:03:23;;;;;;;10.40;9.20;;;;;;;;;;4894170;29;20028;-56
2022/10/07 11:05:50;;;;;;;11.98;9.48;;;;;;;;;;4893061;29;20832;-59
2022/10/07 11:08:18;;;;;;;11.00;8.95;;;;;;;;;;4893279;29;20111;-59
2022/10/07 11:10:53;;;;;;;11.40;10.23;;;;;;;;;;4893725;29;20222;-59
2022/10/07 11:13:39;;;;;;;16.52;9.38;;;;;;;;;;4892697;29;20143;-59
2022/10/07 11:16:23;;;;;;;10.82;9.70;;;;;;;;;;4892112;29;20095;-59
2022/10/07 11:19:07;;;;;;;8.88;8.10;;;;;;;;;;4892205;29;20024;-59
2022/10/07 11:21:37;;;;;;;10.55;9.20;;;;;;;;;;4892153;29;20024;-64
2022/10/07 11:24:03;;;;;;;16.50;10.70;;;;;;;;;;4894247;29;20036;-60
2022/10/07 11:26:36;;;;;;;10.95;9.50;;;;;;;;;;4894501;29;20386;-59
2022/10/07 11:29:04;;;;;;;11.18;9.50;;;;;;;;;;4894351;29;20476;-60
2022/10/07 11:31:33;;;;;;;13.30;9.45;;;;;;;;;;4894126;29;20032;-58
2022/10/07 11:34:04;;;;;;;9.60;8.00;;;;;;;;;;4895524;29;20079;-57
2022/10/07 11:36:36;;;;;;;12.93;8.80;;;;;;;;;;4895147;29;20032;-60
2022/10/07 11:39:01;;;;;;;10.30;8.65;;;;;;;;;;4892396;29;20476;-59
2022/10/07 11:41:30;;;;;;;10.20;9.10;;;;;;;;;;4891589;29;20032;-58
2022/10/07 11:43:57;;;;;;;11.35;8.48;;;;;;;;;;4894257;29;20032;-58
2022/10/07 11:46:26;;;;;;;10.43;9.15;;;;;;;;;;4897093;29;20031;-60
2022/10/07 11:48:53;;;;;;;10.55;7.88;;;;;;;;;;4897894;29;20086;-58
2022/10/07 11:51:29;;;;;;;11.48;8.38;;;;;;;;;;4914987;29;20393;-59
2022/10/07 11:53:55;;;;;;;9.80;7.88;;;;;;;;;;4916475;29;20016;-59
2022/10/07 11:56:23;;;;;;;9.10;7.72;;;;;;;;;;4917224;29;20515;-61
2022/10/07 11:58:56;;;;;;;11.18;7.80;;;;;;;;;;4916057;29;20078;-56
2022/10/07 12:01:25;;;;;;;8.65;7.28;;;;;;;;;;4916299;29;20020;-55
2022/10/07 12:04:14;;;;;;;8.13;7.28;;;;;;;;;;4912959;29;20034;-55
2022/10/07 12:06:59;;;;;;;7.55;6.70;;;;;;;;;;4913706;29;20059;-58
2022/10/07 12:09:43;;;;;;;8.23;7.35;;;;;;;;;;4914568;29;20075;-60
2022/10/07 12:12:11;;;;;;;7.43;6.68;;;;;;;;;;4915475;29;20122;-59
2022/10/07 12:14:40;;;;;;;7.40;6.30;;;;;;;;;;4912710;29;20039;-59
2022/10/07 12:17:17;;;;;;;7.80;6.30;;;;;;;;;;4903222;29;20062;-60
2022/10/07 12:19:42;;;;;;;9.90;6.85;;;;;;;;;;4916454;29;20035;-60
2022/10/07 12:22:14;;;;;;;10.70;5.80;;;;;;;;;;4914405;29;20039;-59
2022/10/07 12:24:42;;;;;;;9.65;5.13;;;;;;;;;;4912184;29;20028;-60
2022/10/07 12:27:19;;;;;;;8.45;5.28;;;;;;;;;;4916912;29;20032;-59
2022/10/07 12:29:49;;;;;;;4.88;4.43;;;;;;;;;;4914465;29;20099;-60
2022/10/07 12:32:33;;;;;;;6.25;5.10;;;;;;;;;;4912243;29;20039;-59
2022/10/07 12:35:20;;;;;;;10.00;4.72;;;;;;;;;;4914834;29;20215;-60
2022/10/07 12:37:45;;;;;;;10.50;5.80;;;;;;;;;;4915231;29;20035;-60
2022/10/07 12:40:23;;;;;;;6.45;5.43;;;;;;;;;;4900791;29;20043;-59
2022/10/07 12:43:09;;;;;;;8.65;4.72;;;;;;;;;;4913748;29;20054;-58
2022/10/07 12:45:37;;;;;;;8.95;6.43;;;;;;;;;;4913080;29;20778;-60
2022/10/07 12:48:03;;;;;;;6.57;5.75;;;;;;;;;;4915944;29;20027;-60
2022/10/07 12:50:30;;;;;;;9.75;4.85;;;;;;;;;;4915168;29;20060;-60
2022/10/07 12:52:57;;;;;;;4.97;4.50;;;;;;;;;;4912096;29;20047;-59
2022/10/07 12:55:26;;;;;;;7.20;4.85;;;;;;;;;;4912362;29;20040;-61
2022/10/07 12:57:52;;;;;;;8.13;5.90;;;;;;;;;;4912674;29;20123;-59
2022/10/07 13:00:17;;;;;;;11.07;4.90;;;;;;;;;;4915380;29;20043;-57
2022/10/07 13:03:04;;;;;;;17.15;7.18;;;;;;;;;;4913011;29;20960;-59
2022/10/07 13:05:29;;;;;;;13.52;5.20;;;;;;;;;;4914904;29;20083;-58
2022/10/07 13:08:07;;;;;;;10.20;5.13;;;;;;;;;;4912269;29;20036;-59
2022/10/07 13:10:45;;;;;;;6.20;5.07;;;;;;;;;;4911978;29;20028;-59
2022/10/07 13:13:39;;;;;;;14.15;6.68;;;;;;;;;;4913902;29;20073;-58
2022/10/07 13:16:09;;;;;;;6.82;5.30;;;;;;;;;;4908498;29;20039;-57
2022/10/07 13:18:53;;;;;;;8.93;5.38;;;;;;;;;;4914534;29;20455;-62
2022/10/07 13:21:25;;;;;;;9.18;5.57;;;;;;;;;;4894106;29;20127;-59
2022/10/07 13:23:51;;;;;;;10.95;5.80;;;;;;;;;;4913653;29;20043;-60
2022/10/07 13:26:18;;;;;;;8.88;4.90;;;;;;;;;;4914141;29;20112;-60
2022/10/07 13:28:46;;;;;;;11.43;5.53;;;;;;;;;;4915154;29;20024;-60
2022/10/07 13:31:16;;;;;;;9.82;5.35;;;;;;;;;;4914581;29;20047;-60
2022/10/07 13:33:43;;;;;;;12.07;5.85;;;;;;;;;;4916724;29;20039;-60
2022/10/07 13:36:19;;;;;;;11.15;5.15;;;;;;;;;;4915762;29;20158;-61
2022/10/07 13:38:46;;;;;;;8.88;4.80;;;;;;;;;;4915123;29;20039;-60
2022/10/07 13:41:18;;;;;;;6.25;5.20;;;;;;;;;;4915628;29;20040;-60
2022/10/07 13:43:44;;;;;;;7.60;5.32;;;;;;;;;;4896632;29;20044;-61
2022/10/07 13:46:10;;;;;;;6.78;4.80;;;;;;;;;;4913553;29;20035;-61
2022/10/07 13:48:37;;;;;;;17.77;5.60;;;;;;;;;;4914869;29;20036;-60
2022/10/07 13:51:04;;;;;;;12.45;5.20;;;;;;;;;;4914489;29;20051;-60
2022/10/07 13:53:33;;;;;;;8.07;4.35;;;;;;;;;;4913526;29;20036;-59
2022/10/07 13:56:05;;;;;;;8.90;4.80;;;;;;;;;;4911385;29;20111;-59
2022/10/07 13:58:33;;;;;;;8.00;5.00;;;;;;;;;;4917018;29;20031;-58
2022/10/07 14:01:01;;;;;;;7.32;4.55;;;;;;;;;;4906769;29;20259;-57
2022/10/07 14:03:27;;;;;;;7.05;4.85;;;;;;;;;;4914600;29;20114;-52
2022/10/07 14:05:52;;;;;;;13.50;4.82;;;;;;;;;;4900799;29;20090;-57
2022/10/07 14:08:20;;;;;;;5.65;4.50;;;;;;;;;;4911656;29;20028;-52
2022/10/07 14:10:54;;;;;;;6.82;4.05;;;;;;;;;;4914334;29;20024;-56
2022/10/07 14:13:19;;;;;;;6.72;4.80;;;;;;;;;;4899150;29;20087;-58
2022/10/07 14:15:46;;;;;;;5.18;4.50;;;;;;;;;;4909678;29;20872;-58
2022/10/07 14:18:13;;;;;;;7.13;4.72;;;;;;;;;;4912852;29;20082;-60
2022/10/07 14:20:40;;;;;;;6.32;4.40;;;;;;;;;;4909429;29;20030;-58
2022/10/07 14:23:17;;;;;;;8.18;4.57;;;;;;;;;;4913668;29;20036;-58
2022/10/07 14:25:45;;;;;;;6.63;4.78;;;;;;;;;;4912037;29;20040;-59
2022/10/07 14:28:16;;;;;;;4.68;4.28;;;;;;;;;;4914532;29;20072;-58
2022/10/07 14:36:27;;;;;;;7.80;4.53;;;;;;;;;;4911778;29;20078;-57
2022/10/07 14:38:56;;;;;;;6.45;4.55;;;;;;;;;;4912644;29;20867;-57
2022/10/07 14:41:22;;;;;;;6.57;4.00;;;;;;;;;;4897972;29;20038;-58
2022/10/07 14:43:48;;;;;;;6.40;4.90;;;;;;;;;;4912657;29;20032;-58
2022/10/07 14:46:14;;;;;;;10.57;4.43;;;;;;;;;;4896218;29;20090;-57
2022/10/07 14:48:40;;;;;;;7.95;4.40;;;;;;;;;;4913256;29;20028;-58
2022/10/07 14:51:05;;;;;;;5.00;4.00;;;;;;;;;;4911139;29;20056;-59
2022/10/07 14:53:31;;;;;;;4.80;4.28;;;;;;;;;;4916570;29;20457;-54
2022/10/07 14:55:56;;;;;;;5.25;4.85;;;;;;;;;;4912706;29;20036;-56
2022/10/07 14:58:23;;;;;;;5.38;4.63;;;;;;;;;;4911704;29;20484;-54